This is the latest recevied weather packets stored in our database for station/object WD4HMR. If no packets are shown the sender has not sent any weather packets the latest 10 day(s).
| Time | Temp. | Humidity | Pressure | Rain* | Wind** | Luminosity | Snow |
|---|---|---|---|---|---|---|---|
| 1777474504 | 22.22° C | 89% | 1014.5 hPa | 0 mm | - | 759 W/m² | - |
| 1777473303 | 21.11° C | 91% | 1014.4 hPa | 0 mm | - | 673 W/m² | - |
| 1777472104 | 20.56° C | 92% | 1014.4 hPa | 0 mm | - | 586 W/m² | - |
| 1777471804 | 20.56° C | 92% | 1014.2 hPa | 0 mm | - | 565 W/m² | - |
| 1777470604 | 20° C | 93% | 1014 hPa | 0 mm | - | 479 W/m² | - |
| 1777470303 | 20° C | 94% | 1013.9 hPa | 0 mm | - | 458 W/m² | - |
| 1777470004 | 19.44° C | 94% | 1013.8 hPa | 0 mm | - | 437 W/m² | - |
| 1777469704 | 19.44° C | 95% | 1013.6 hPa | 0 mm | - | 416 W/m² | - |
| 1777467304 | 17.78° C | 98% | 1012.8 hPa | 0 mm | - | 199 W/m² | - |
| 1777466404 | 17.78° C | 98% | 1012.5 hPa | 0 mm | - | 204 W/m² | - |
| 1777465504 | 17.78° C | 99% | 1012 hPa | 0 mm | - | 139 W/m² | - |
| 1777465204 | 17.78° C | 99% | 1012 hPa | 0 mm | - | 84 W/m² | - |
| 1777462204 | 17.22° C | 99% | 1012.1 hPa | 0 mm | - | 3 W/m² | - |
| 1777461911 | 17.22° C | 99% | 1012.4 hPa | 0 mm | - | 1 W/m² | - |
| 1777459204 | 17.22° C | 99% | 1010.8 hPa | 0 mm | - | 0 W/m² | - |
| 1777458604 | 17.22° C | 100% | 1010.4 hPa | 0 mm | - | 0 W/m² | - |
| 1777458304 | 17.22° C | 100% | 1010.5 hPa | 0 mm | - | 0 W/m² | - |
| 1777456504 | 17.22° C | 99% | 1011.4 hPa | 0 mm | - | 0 W/m² | - |
| 1777455603 | 16.67° C | 99% | 1012.2 hPa | 0 mm | - | 0 W/m² | - |
| 1777455304 | 16.67° C | 99% | 1012.1 hPa | 0 mm | - | 0 W/m² | - |
| 1777455004 | 16.67° C | 99% | 1012.3 hPa | 0 mm | - | 0 W/m² | - |
| 1777454703 | 16.67° C | 99% | 1012.5 hPa | 0 mm | - | 0 W/m² | - |
| 1777454404 | 16.67° C | 99% | 1012.3 hPa | 0 mm | - | 0 W/m² | - |
| 1777453807 | 16.67° C | 99% | 1011.6 hPa | 0 mm | - | 0 W/m² | - |
| 1777453504 | 16.67° C | 100% | 1011.9 hPa | 0 mm | - | 0 W/m² | - |
* Rain latest hour (hover to see other rain measurements)
** Current wind speed in m/s (hover to see current wind gust speed)